Aikou Maru — JD3395 — position and weather

sailwx.info

Track history (hours):
 
Tides and Currents Weather Stations Pressure Air Temp Water Temp Dewpoint Dewpoint Depression Visibility Wind Speed Wind Dir Waves Ship Positions

Aikou Maru

Last reported at 2017-Nov-04 07:55 UTC. Time now 2017-Nov-22 14:45 UTC.
Position N 34°09' E 135°04'.
Warning: this ship's position is 18 days out of date.

Length 89 m; draft 4.6 m.

Type: Tanker. MMSI: 431003751.

Date/timePositionNaut miles runAvg speedWind from/ knotsBaromVisibWave heightAir tempDewpointWater temp
2017-Nov-04 07:55N 34°09' E 135°04'3 7.4
2017-Nov-04 07:29N 34°07' E 135°07'0 0.1
2017-Nov-04 06:59N 34°07' E 135°07'0 0.0
2017-Nov-04 06:27N 34°07' E 135°07'0 0.0
2017-Nov-04 05:55N 34°07' E 135°07'0 0.0
2017-Nov-04 03:17N 34°07' E 135°07'0 0.6
2017-Nov-04 02:50N 34°07' E 135°07'1 1.6
2017-Nov-04 02:31N 34°08' E 135°07'0 0.0
2017-Nov-04 02:01N 34°08' E 135°07'0 0.0
2017-Nov-04 01:30N 34°08' E 135°07'0 0.0
2017-Nov-04 01:01N 34°08' E 135°07'0 0.1
2017-Nov-04 00:31N 34°08' E 135°07'1 1.6
2017-Nov-03 23:58N 34°08' E 135°06'7 0.2
2017-Nov-02 07:35N 34°03' E 134°59'213.8
2017-Nov-02 07:25N 34°05' E 134°60'614.0
2017-Nov-02 07:01N 34°11' E 134°59'1813.3
2017-Nov-02 05:37N 34°29' E 135°02'213.2
2017-Nov-02 05:30N 34°31' E 135°03'612.6
2017-Nov-02 05:00N 34°37' E 135°01'  
2017-Oct-30 19:35N 34°37' E 135°01'115.6
2017-Oct-30 19:30N 34°37' E 135°02'612.0
2017-Oct-30 19:00N 34°31' E 135°04'714.2
2017-Oct-30 18:30N 34°24' E 135°02'813.2
2017-Oct-30 17:53N 34°16' E 134°59'512.0
2017-Oct-30 17:30N 34°12' E 134°59'712.7
2017-Oct-30 16:59N 34°05' E 134°58'  
2017-Oct-26 20:12N 33°60' E 134°58'313.7
2017-Oct-26 20:00N 34°02' E 134°58'714.0
2017-Oct-26 19:31N 34°09' E 134°58'815.1
2017-Oct-26 18:58N 34°18' E 134°58'814.2
2017-Oct-26 18:25N 34°25' E 135°01'614.1
2017-Oct-26 18:00N 34°31' E 135°03'611.7
2017-Oct-26 17:30N 34°37' E 135°02'1 0.1
2017-Oct-26 00:46N 34°37' E 135°01'414.4
2017-Oct-26 00:30N 34°36' E 135°05'611.9
2017-Oct-26 00:00N 34°30' E 135°05'612.4
2017-Oct-25 23:30N 34°24' E 135°03'712.5
2017-Oct-25 22:59N 34°18' E 134°59'511.1
2017-Oct-25 22:30N 34°13' E 134°59'611.6
2017-Oct-25 22:00N 34°07' E 134°59'  
Track history (hours):
 
Tides and Currents Weather Stations Pressure Air Temp Water Temp Dewpoint Dewpoint Depression Visibility Wind Speed Wind Dir Waves Ship Positions

Aikou Maru

Last reported at 2017-Nov-04 07:55 UTC. Time now 2017-Nov-22 14:45 UTC.
Position N 34°09' E 135°04'.
Warning: this ship's position is 18 days out of date.

Length 89 m; draft 4.6 m.

Type: Tanker. MMSI: 431003751.

Date/timePositionNaut miles runAvg speedWind from/ knotsBaromVisibWave heightAir tempDewpointWater temp
2017-Nov-04 07:55N 34°09' E 135°04'3 7.4
2017-Nov-04 07:29N 34°07' E 135°07'0 0.1
2017-Nov-04 06:59N 34°07' E 135°07'0 0.0
2017-Nov-04 06:27N 34°07' E 135°07'0 0.0
2017-Nov-04 05:55N 34°07' E 135°07'0 0.0
2017-Nov-04 03:17N 34°07' E 135°07'0 0.6
2017-Nov-04 02:50N 34°07' E 135°07'1 1.6
2017-Nov-04 02:31N 34°08' E 135°07'0 0.0
2017-Nov-04 02:01N 34°08' E 135°07'0 0.0
2017-Nov-04 01:30N 34°08' E 135°07'0 0.0
2017-Nov-04 01:01N 34°08' E 135°07'0 0.1
2017-Nov-04 00:31N 34°08' E 135°07'1 1.6
2017-Nov-03 23:58N 34°08' E 135°06'7 0.2
2017-Nov-02 07:35N 34°03' E 134°59'213.8
2017-Nov-02 07:25N 34°05' E 134°60'614.0
2017-Nov-02 07:01N 34°11' E 134°59'1813.3
2017-Nov-02 05:37N 34°29' E 135°02'213.2
2017-Nov-02 05:30N 34°31' E 135°03'612.6
2017-Nov-02 05:00N 34°37' E 135°01'  
2017-Oct-30 19:35N 34°37' E 135°01'115.6
2017-Oct-30 19:30N 34°37' E 135°02'612.0
2017-Oct-30 19:00N 34°31' E 135°04'714.2
2017-Oct-30 18:30N 34°24' E 135°02'813.2
2017-Oct-30 17:53N 34°16' E 134°59'512.0
2017-Oct-30 17:30N 34°12' E 134°59'712.7
2017-Oct-30 16:59N 34°05' E 134°58'  
2017-Oct-26 20:12N 33°60' E 134°58'313.7
2017-Oct-26 20:00N 34°02' E 134°58'714.0
2017-Oct-26 19:31N 34°09' E 134°58'815.1
2017-Oct-26 18:58N 34°18' E 134°58'814.2
2017-Oct-26 18:25N 34°25' E 135°01'614.1
2017-Oct-26 18:00N 34°31' E 135°03'611.7
2017-Oct-26 17:30N 34°37' E 135°02'1 0.1
2017-Oct-26 00:46N 34°37' E 135°01'414.4
2017-Oct-26 00:30N 34°36' E 135°05'611.9
2017-Oct-26 00:00N 34°30' E 135°05'612.4
2017-Oct-25 23:30N 34°24' E 135°03'712.5
2017-Oct-25 22:59N 34°18' E 134°59'511.1
2017-Oct-25 22:30N 34°13' E 134°59'611.6
2017-Oct-25 22:00N 34°07' E 134°59'  

Dump ship's entire track history